createdAt,value
2023-04-26T00:01:30.822Z,58.90
2023-04-26T00:03:57.734Z,59.00
2023-04-26T00:06:24.789Z,58.90
2023-04-26T00:08:51.614Z,58.90
2023-04-26T00:11:18.595Z,58.90
2023-04-26T00:13:45.240Z,58.90
2023-04-26T00:16:13.798Z,58.90
2023-04-26T00:18:40.438Z,58.90
2023-04-26T00:21:07.021Z,59.00
2023-04-26T00:23:33.671Z,59.00
2023-04-26T00:26:00.243Z,58.90
2023-04-26T00:28:28.524Z,59.00
2023-04-26T00:30:57.672Z,59.00
2023-04-26T00:33:24.684Z,59.00
2023-04-26T00:35:51.483Z,59.10
2023-04-26T00:38:18.461Z,59.00
2023-04-26T00:40:45.043Z,59.00
2023-04-26T00:43:11.696Z,59.00
2023-04-26T00:45:38.994Z,59.00
2023-04-26T00:48:06.191Z,59.00
2023-04-26T00:50:33.228Z,59.00
2023-04-26T00:53:00.804Z,59.00
2023-04-26T00:55:27.439Z,58.90
2023-04-26T00:57:55.208Z,59.10
2023-04-26T01:00:21.916Z,59.00
2023-04-26T01:02:48.721Z,59.10
2023-04-26T01:05:15.468Z,59.00
2023-04-26T01:07:42.171Z,59.10
2023-04-26T01:10:09.909Z,59.00
2023-04-26T01:12:37.996Z,59.00
2023-04-26T01:15:06.058Z,59.10
2023-04-26T01:17:32.836Z,59.00
2023-04-26T01:19:59.549Z,59.00
2023-04-26T01:22:26.411Z,59.00
2023-04-26T01:25:12.985Z,59.10
2023-04-26T01:27:40.033Z,59.20
2023-04-26T01:30:08.349Z,59.10
2023-04-26T01:32:35.283Z,59.10
2023-04-26T01:35:02.182Z,59.10
2023-04-26T01:37:28.781Z,59.10
2023-04-26T01:39:55.710Z,59.20
2023-04-26T01:42:22.348Z,59.40
2023-04-26T01:44:48.967Z,59.10
2023-04-26T01:47:15.739Z,59.20
2023-04-26T01:49:42.370Z,59.20
2023-04-26T01:52:09.053Z,59.20
2023-04-26T01:54:35.735Z,59.20
2023-04-26T01:57:02.899Z,59.20
2023-04-26T01:59:29.666Z,59.30
2023-04-26T02:01:56.324Z,59.20
2023-04-26T02:04:24.208Z,59.20
2023-04-26T02:06:50.841Z,59.10
2023-04-26T02:09:18.227Z,59.20
2023-04-26T02:11:44.877Z,59.30
2023-04-26T02:14:11.964Z,59.20
2023-04-26T02:16:40.262Z,59.10
2023-04-26T02:19:10.752Z,59.10
2023-04-26T02:21:57.869Z,59.10
2023-04-26T02:24:25.780Z,59.20
2023-04-26T02:26:54.326Z,59.20
2023-04-26T02:29:29.470Z,59.10
2023-04-26T02:32:02.887Z,59.10
2023-04-26T02:34:29.621Z,59.20
2023-04-26T02:40:37.133Z,59.00
2023-04-26T02:43:03.754Z,59.10
2023-04-26T02:45:30.529Z,59.10
2023-04-26T02:47:57.260Z,59.10
2023-04-26T02:50:23.906Z,59.10
2023-04-26T02:52:50.484Z,59.10
2023-04-26T02:55:17.304Z,59.10
2023-04-26T02:57:43.911Z,59.10
2023-04-26T03:00:11.850Z,59.10
2023-04-26T03:02:38.659Z,59.10
2023-04-26T03:05:05.594Z,59.10
2023-04-26T03:07:32.957Z,59.00
2023-04-26T03:10:00.288Z,59.30
2023-04-26T03:12:26.904Z,59.10
2023-04-26T03:14:53.480Z,59.00
2023-04-26T03:17:20.068Z,59.10
2023-04-26T03:19:46.593Z,59.10
2023-04-26T03:22:16.045Z,59.10
2023-04-26T03:24:43.796Z,59.00
2023-04-26T03:27:10.497Z,59.10
2023-04-26T03:29:37.553Z,59.60
2023-04-26T03:32:04.450Z,59.00
2023-04-26T03:34:31.345Z,59.10
2023-04-26T03:36:57.949Z,59.10
2023-04-26T03:39:24.638Z,59.20
2023-04-26T03:41:51.217Z,59.00
2023-04-26T03:44:17.834Z,59.10
2023-04-26T03:46:44.440Z,59.10
2023-04-26T03:49:11.032Z,59.10
2023-04-26T03:51:37.574Z,59.20
2023-04-26T03:54:04.738Z,59.10
2023-04-26T03:56:31.428Z,59.10
2023-04-26T03:58:57.967Z,59.10
2023-04-26T04:01:24.643Z,59.00
2023-04-26T04:03:51.358Z,59.00
2023-04-26T04:06:18.056Z,59.10
2023-04-26T04:08:44.629Z,59.10
2023-04-26T04:11:11.273Z,59.10
2023-04-26T04:13:37.881Z,59.00
2023-04-26T04:16:04.854Z,59.10
2023-04-26T04:18:31.508Z,59.10
2023-04-26T04:20:58.153Z,59.10
2023-04-26T04:23:24.972Z,59.00
2023-04-26T04:25:52.239Z,59.10
2023-04-26T04:28:18.826Z,59.00
2023-04-26T04:30:46.366Z,52.00
2023-04-26T04:35:42.131Z,88.60
2023-04-26T04:38:09.113Z,64.60
2023-04-26T04:40:35.710Z,54.20
2023-04-26T04:52:53.376Z,88.90
2023-04-26T04:55:20.093Z,51.60
2023-04-26T04:57:46.721Z,51.70
2023-04-26T05:00:14.138Z,52.10
2023-04-26T05:02:41.198Z,52.50
2023-04-26T05:05:08.465Z,52.30
2023-04-26T05:07:35.230Z,53.00
2023-04-26T05:10:02.115Z,53.30
2023-04-26T05:12:28.686Z,53.60
2023-04-26T05:14:55.358Z,53.70
2023-04-26T05:17:21.964Z,54.00
2023-04-26T05:19:51.702Z,54.00
2023-04-26T05:22:20.983Z,54.10
2023-04-26T05:24:48.114Z,57.80
2023-04-26T05:27:14.795Z,54.30
2023-04-26T05:29:41.956Z,54.30
2023-04-26T05:32:08.921Z,54.40
2023-04-26T05:34:36.614Z,54.60
2023-04-26T05:37:03.556Z,54.60
2023-04-26T05:39:30.679Z,54.60
2023-04-26T05:41:57.403Z,54.60
2023-04-26T05:44:24.528Z,54.70
2023-04-26T05:46:51.401Z,54.80
2023-04-26T05:49:18.057Z,54.80
2023-04-26T05:51:44.669Z,54.90
2023-04-26T05:54:11.285Z,55.00
2023-04-26T05:56:37.937Z,55.00
2023-04-26T05:59:04.599Z,55.00
2023-04-26T06:01:31.599Z,55.00
2023-04-26T06:04:00.629Z,55.20
2023-04-26T06:06:28.237Z,55.30
2023-04-26T06:08:55.458Z,55.30
2023-04-26T06:11:22.203Z,55.40
2023-04-26T06:13:48.786Z,55.50
2023-04-26T06:16:15.966Z,55.60
2023-04-26T06:18:43.145Z,55.60
2023-04-26T06:21:09.847Z,55.70
2023-04-26T06:23:36.434Z,55.70
2023-04-26T06:26:02.981Z,55.80
2023-04-26T06:28:29.516Z,55.90
2023-04-26T06:30:56.118Z,55.90
2023-04-26T06:33:22.738Z,55.90
2023-04-26T06:35:49.369Z,55.90
2023-04-26T06:38:15.983Z,56.00
2023-04-26T06:40:42.976Z,55.90
2023-04-26T06:43:09.572Z,56.00
2023-04-26T06:45:36.933Z,56.00
2023-04-26T06:48:04.862Z,56.10
2023-04-26T06:50:31.567Z,56.20
2023-04-26T06:52:58.182Z,56.20
2023-04-26T06:55:24.952Z,56.20
2023-04-26T06:57:51.609Z,56.20
2023-04-26T07:00:19.010Z,56.20
2023-04-26T07:02:45.944Z,56.20
2023-04-26T07:05:13.093Z,56.20
2023-04-26T07:07:39.764Z,56.20
2023-04-26T07:10:07.272Z,56.30
2023-04-26T07:12:33.849Z,56.30
2023-04-26T07:15:01.336Z,56.30
2023-04-26T07:17:28.195Z,56.30
2023-04-26T07:19:56.158Z,56.30
2023-04-26T07:22:23.466Z,56.30
2023-04-26T07:24:50.169Z,56.30
2023-04-26T07:27:16.999Z,56.30
2023-04-26T07:29:43.609Z,56.40
2023-04-26T07:32:10.359Z,56.30
2023-04-26T07:34:37.547Z,56.30
2023-04-26T07:37:04.500Z,56.30
2023-04-26T07:39:31.367Z,56.40
2023-04-26T07:41:57.958Z,56.30
2023-04-26T07:44:24.528Z,56.30
2023-04-26T07:46:51.555Z,56.30
2023-04-26T07:49:18.114Z,56.30
2023-04-26T07:51:45.563Z,56.30
2023-04-26T07:54:12.204Z,56.30
2023-04-26T07:56:38.805Z,56.30
2023-04-26T07:59:05.351Z,56.20
2023-04-26T08:01:31.927Z,56.20
2023-04-26T08:03:59.206Z,56.20
2023-04-26T08:06:26.833Z,56.20
2023-04-26T08:08:53.952Z,56.30
2023-04-26T08:11:20.681Z,56.20
2023-04-26T08:13:47.474Z,56.30
2023-04-26T08:16:14.414Z,56.30
2023-04-26T08:18:41.046Z,56.30
2023-04-26T08:21:07.734Z,56.30
2023-04-26T08:23:38.172Z,56.20
2023-04-26T08:26:04.783Z,56.20
2023-04-26T08:28:31.409Z,56.30
2023-04-26T08:30:58.193Z,56.30
2023-04-26T08:33:25.526Z,56.20
2023-04-26T08:35:52.435Z,56.30
2023-04-26T08:38:19.168Z,56.30
2023-04-26T08:40:47.021Z,56.20
2023-04-26T08:43:16.368Z,56.20
2023-04-26T08:45:49.471Z,56.20
2023-04-26T08:48:18.195Z,56.20
2023-04-26T08:50:46.670Z,56.10
2023-04-26T08:53:17.026Z,56.10
2023-04-26T08:55:50.826Z,56.10
2023-04-26T08:58:18.636Z,56.10
2023-04-26T09:00:46.172Z,56.10
2023-04-26T09:03:13.116Z,56.00
2023-04-26T09:05:40.749Z,56.10
2023-04-26T09:08:08.468Z,56.10
2023-04-26T09:10:35.398Z,56.10
2023-04-26T09:13:01.999Z,56.10
2023-04-26T09:15:28.626Z,56.00
2023-04-26T09:17:55.332Z,56.00
2023-04-26T09:20:31.228Z,55.90
2023-04-26T09:23:08.536Z,55.90
2023-04-26T09:25:35.670Z,56.00
2023-04-26T09:28:03.947Z,56.00
2023-04-26T09:30:31.247Z,56.10
2023-04-26T09:33:00.296Z,56.10
2023-04-26T09:35:34.983Z,56.10
2023-04-26T09:38:11.057Z,56.10
2023-04-26T09:40:46.272Z,56.10
2023-04-26T09:43:15.447Z,55.90
2023-04-26T09:45:56.099Z,56.10
2023-04-26T09:48:28.798Z,56.10
2023-04-26T09:50:57.514Z,56.00
2023-04-26T09:53:27.421Z,56.00
2023-04-26T09:55:55.413Z,56.00
2023-04-26T09:58:23.284Z,56.00
2023-04-26T10:00:52.122Z,55.90
2023-04-26T10:03:20.806Z,55.40
2023-04-26T10:05:47.835Z,55.60
2023-04-26T10:08:14.738Z,55.70
2023-04-26T10:10:42.658Z,55.80
2023-04-26T10:13:10.976Z,55.60
2023-04-26T10:15:39.787Z,55.50
2023-04-26T10:18:06.873Z,56.20
2023-04-26T10:20:36.136Z,55.60
2023-04-26T10:23:06.252Z,55.70
2023-04-26T10:25:44.146Z,55.70
2023-04-26T10:28:11.457Z,55.70
2023-04-26T10:30:57.277Z,55.80
2023-04-26T10:33:25.887Z,55.60
2023-04-26T10:36:08.564Z,55.60
2023-04-26T10:38:37.031Z,55.70
2023-04-26T10:41:48.676Z,55.70
2023-04-26T10:44:52.250Z,55.70
2023-04-26T10:47:31.468Z,55.70
2023-04-26T10:50:09.700Z,55.70
2023-04-26T10:53:03.382Z,55.80
2023-04-26T10:55:43.034Z,55.80
2023-04-26T10:58:33.369Z,55.70
2023-04-26T11:01:16.891Z,55.60
2023-04-26T11:04:04.264Z,55.60
2023-04-26T11:06:47.647Z,55.60
2023-04-26T11:09:40.819Z,55.60
2023-04-26T11:12:12.888Z,55.50
2023-04-26T11:14:41.801Z,55.40
2023-04-26T11:17:09.721Z,55.50
2023-04-26T11:19:36.343Z,55.60
2023-04-26T11:22:03.724Z,55.50
2023-04-26T11:24:31.386Z,55.60
2023-04-26T11:26:58.258Z,55.50
2023-04-26T11:29:25.805Z,55.60
2023-04-26T11:31:57.602Z,55.60
2023-04-26T11:34:33.322Z,55.60
2023-04-26T11:37:05.525Z,55.60
2023-04-26T11:39:33.002Z,55.60
2023-04-26T11:42:10.135Z,55.60
2023-04-26T11:44:37.944Z,55.70
2023-04-26T11:47:06.551Z,55.70
2023-04-26T11:49:36.005Z,55.70
2023-04-26T11:52:04.760Z,55.70
2023-04-26T11:54:33.400Z,55.60
2023-04-26T11:57:00.938Z,55.70
2023-04-26T11:59:30.922Z,55.60
2023-04-26T12:01:58.358Z,55.80
2023-04-26T12:04:30.421Z,55.70
2023-04-26T12:06:58.310Z,55.70
2023-04-26T12:09:29.650Z,55.70
2023-04-26T12:12:00.929Z,55.80
2023-04-26T12:14:47.794Z,55.70
2023-04-26T12:17:15.641Z,55.60
2023-04-26T12:19:42.280Z,55.70
2023-04-26T12:22:09.318Z,55.60
2023-04-26T12:24:37.374Z,55.60
2023-04-26T12:27:06.560Z,55.60
2023-04-26T12:29:33.914Z,55.60
2023-04-26T12:32:01.240Z,55.70
2023-04-26T12:34:28.097Z,55.60
2023-04-26T12:36:55.132Z,55.70
2023-04-26T12:39:21.764Z,55.70
2023-04-26T12:41:49.030Z,55.60
2023-04-26T12:44:15.609Z,55.70
2023-04-26T12:46:42.495Z,55.60
2023-04-26T12:49:09.209Z,55.60
2023-04-26T12:51:35.885Z,55.60
2023-04-26T12:54:02.780Z,56.20
2023-04-26T12:56:29.995Z,55.60
2023-04-26T12:58:56.813Z,55.50
2023-04-26T13:01:23.419Z,55.60
2023-04-26T13:03:50.466Z,55.50
2023-04-26T13:06:17.879Z,55.60
2023-04-26T13:08:44.514Z,55.50
2023-04-26T13:11:11.086Z,55.50
2023-04-26T13:13:43.482Z,55.50
2023-04-26T13:16:12.253Z,55.60
2023-04-26T13:18:39.635Z,55.60
2023-04-26T13:21:06.279Z,55.60
2023-04-26T13:23:32.906Z,55.50
2023-04-26T13:25:59.537Z,55.50
2023-04-26T13:28:26.160Z,55.30
2023-04-26T13:30:52.937Z,55.40
2023-04-26T13:33:21.333Z,55.40
2023-04-26T13:35:48.464Z,55.40
2023-04-26T13:38:15.950Z,55.40
2023-04-26T13:40:43.158Z,55.40
2023-04-26T13:43:09.710Z,55.30
2023-04-26T13:45:36.572Z,55.20
2023-04-26T13:48:03.245Z,55.30
2023-04-26T13:50:30.051Z,55.20
2023-04-26T13:52:56.883Z,55.30
2023-04-26T13:55:23.694Z,55.40
2023-04-26T13:57:50.306Z,55.30
2023-04-26T14:00:17.435Z,55.10
2023-04-26T14:02:44.259Z,54.80
2023-04-26T14:05:11.084Z,54.80
2023-04-26T14:07:37.789Z,54.90
2023-04-26T14:10:04.690Z,55.00
2023-04-26T14:12:31.703Z,54.80
2023-04-26T14:14:58.260Z,55.00
2023-04-26T14:17:25.670Z,55.10
2023-04-26T14:19:54.656Z,55.10
2023-04-26T14:22:21.597Z,55.00
2023-04-26T14:24:48.830Z,55.10
2023-04-26T14:27:15.397Z,55.10
2023-04-26T14:29:41.935Z,55.10
2023-04-26T14:32:08.640Z,55.10
2023-04-26T14:34:39.786Z,55.10
2023-04-26T14:37:06.980Z,54.70
2023-04-26T14:39:33.724Z,54.80
2023-04-26T14:42:00.551Z,54.70
2023-04-26T14:44:27.421Z,54.60
2023-04-26T14:46:54.082Z,54.70
2023-04-26T14:49:20.849Z,54.60
2023-04-26T14:51:47.602Z,54.50
2023-04-26T14:54:15.276Z,54.10
2023-04-26T14:56:42.154Z,53.90
2023-04-26T14:59:08.689Z,54.20
2023-04-26T15:01:35.496Z,54.10
2023-04-26T15:04:02.204Z,54.00
2023-04-26T15:06:30.736Z,54.10
2023-04-26T15:08:57.427Z,53.70
2023-04-26T15:11:23.994Z,53.70
2023-04-26T15:13:50.549Z,53.70
2023-04-26T15:16:17.397Z,54.00
2023-04-26T15:18:44.170Z,53.50
2023-04-26T15:21:17.065Z,54.10
2023-04-26T15:23:43.694Z,54.20
2023-04-26T15:26:10.338Z,54.10
2023-04-26T15:28:37.156Z,54.40
2023-04-26T15:31:04.767Z,54.20
2023-04-26T15:33:32.382Z,54.00
2023-04-26T15:35:58.975Z,54.20
2023-04-26T15:38:25.926Z,54.10
2023-04-26T15:40:53.676Z,53.80
2023-04-26T15:43:20.444Z,53.50
2023-04-26T15:45:48.874Z,53.60
2023-04-26T15:48:15.846Z,53.90
2023-04-26T15:50:42.406Z,53.70
2023-04-26T15:53:09.153Z,53.50
2023-04-26T15:55:35.824Z,53.40
2023-04-26T15:58:02.446Z,53.60
2023-04-26T16:00:29.119Z,53.40
2023-04-26T16:02:55.849Z,53.20
2023-04-26T16:05:22.720Z,53.10
2023-04-26T16:07:49.332Z,53.20
2023-04-26T16:10:16.324Z,53.40
2023-04-26T16:12:44.404Z,53.30
2023-04-26T16:15:11.794Z,53.20
2023-04-26T16:17:39.287Z,53.10
2023-04-26T16:20:08.016Z,52.80
2023-04-26T16:22:36.072Z,52.80
2023-04-26T16:25:06.562Z,52.90
2023-04-26T16:27:33.741Z,53.00
2023-04-26T16:30:00.425Z,52.90
2023-04-26T16:32:27.186Z,52.90
2023-04-26T16:34:53.803Z,52.90
2023-04-26T16:37:20.728Z,53.00
2023-04-26T16:39:47.331Z,53.10
2023-04-26T16:42:14.019Z,53.10
2023-04-26T16:44:40.762Z,53.00
2023-04-26T16:47:07.403Z,53.20
2023-04-26T16:49:34.282Z,53.10
2023-04-26T16:52:01.096Z,53.10
2023-04-26T16:54:28.361Z,53.20
2023-04-26T16:56:54.952Z,53.30
2023-04-26T16:59:22.112Z,53.30
2023-04-26T17:01:48.782Z,53.40
2023-04-26T17:04:15.537Z,53.50
2023-04-26T17:06:42.218Z,53.30
2023-04-26T17:09:08.914Z,53.50
2023-04-26T17:11:37.226Z,53.50
2023-04-26T17:14:04.398Z,53.80
2023-04-26T17:16:31.184Z,53.80
2023-04-26T17:18:58.388Z,53.80
2023-04-26T17:21:25.320Z,53.90
2023-04-26T17:23:52.549Z,53.90
2023-04-26T17:26:19.255Z,53.90
2023-04-26T17:28:46.365Z,53.90
2023-04-26T17:31:13.030Z,53.80
2023-04-26T17:33:39.665Z,53.70
2023-04-26T17:36:06.520Z,53.70
2023-04-26T17:38:33.178Z,53.60
2023-04-26T17:40:59.950Z,53.50
2023-04-26T17:43:26.516Z,53.40
2023-04-26T17:45:53.281Z,53.40
2023-04-26T17:48:20.105Z,53.10
2023-04-26T17:50:51.033Z,53.20
2023-04-26T17:53:17.932Z,53.20
2023-04-26T17:55:44.995Z,45.70
2023-04-26T17:58:11.915Z,41.20
2023-04-26T18:00:38.596Z,40.40
2023-04-26T18:03:06.526Z,39.70
2023-04-26T18:05:33.403Z,39.60
2023-04-26T18:08:00.022Z,42.80
2023-04-26T18:10:26.656Z,44.50
2023-04-26T18:12:53.246Z,46.30
2023-04-26T18:15:20.030Z,47.50
2023-04-26T18:17:46.688Z,46.80
2023-04-26T18:20:13.391Z,47.70
2023-04-26T18:22:40.388Z,48.10
2023-04-26T18:25:07.560Z,47.90
2023-04-26T18:27:34.509Z,48.30
2023-04-26T18:30:01.328Z,48.70
2023-04-26T18:32:28.006Z,49.00
2023-04-26T18:34:54.668Z,41.80
2023-04-26T18:37:21.461Z,42.10
2023-04-26T18:39:48.718Z,45.10
2023-04-26T18:42:15.786Z,46.00
2023-04-26T18:44:42.396Z,46.40
2023-04-26T18:47:08.986Z,46.80
2023-04-26T18:49:35.645Z,47.60
2023-04-26T18:52:02.286Z,47.70
2023-04-26T18:54:30.919Z,48.10
2023-04-26T18:56:57.509Z,48.40
2023-04-26T18:59:24.142Z,48.60
2023-04-26T19:01:50.750Z,48.80
2023-04-26T19:04:17.703Z,49.00
2023-04-26T19:06:44.523Z,49.10
2023-04-26T19:09:11.748Z,49.30
2023-04-26T19:11:38.676Z,49.40
2023-04-26T19:14:05.706Z,49.60
2023-04-26T19:16:32.442Z,50.00
2023-04-26T19:18:59.193Z,50.30
2023-04-26T19:21:26.644Z,50.50
2023-04-26T19:23:53.350Z,50.20
2023-04-26T19:26:19.995Z,50.90
2023-04-26T19:28:46.678Z,51.00
2023-04-26T19:31:13.578Z,51.00
2023-04-26T19:33:40.606Z,51.00
2023-04-26T19:36:09.433Z,51.30
2023-04-26T19:38:36.183Z,51.30
2023-04-26T19:41:02.846Z,51.50
2023-04-26T19:43:29.503Z,51.60
2023-04-26T19:45:56.192Z,51.80
2023-04-26T19:48:22.874Z,51.70
2023-04-26T19:50:49.771Z,49.80
2023-04-26T19:53:16.582Z,50.60
2023-04-26T19:55:43.507Z,51.10
2023-04-26T19:58:11.025Z,52.00
2023-04-26T20:00:39.712Z,52.10
2023-04-26T20:03:06.878Z,52.60
2023-04-26T20:05:33.880Z,52.80
2023-04-26T20:08:01.390Z,54.20
2023-04-26T20:10:32.289Z,54.70
2023-04-26T20:13:00.182Z,55.80
2023-04-26T20:15:27.751Z,54.70
2023-04-26T20:17:54.473Z,57.00
2023-04-26T20:20:21.315Z,57.40
2023-04-26T20:22:49.040Z,58.60
2023-04-26T20:25:15.878Z,59.30
2023-04-26T20:27:42.647Z,60.80
2023-04-26T20:30:09.762Z,61.30
2023-04-26T20:32:36.489Z,61.70
2023-04-26T20:35:03.155Z,62.00
2023-04-26T20:37:29.941Z,62.30
2023-04-26T20:39:57.594Z,63.10
2023-04-26T20:42:24.981Z,63.50
2023-04-26T20:44:52.153Z,63.50
2023-04-26T20:47:19.188Z,63.60
2023-04-26T20:49:45.838Z,63.80
2023-04-26T20:52:12.751Z,64.50
2023-04-26T20:54:39.417Z,64.30
2023-04-26T20:57:06.390Z,65.00
2023-04-26T20:59:33.126Z,64.50
2023-04-26T21:02:02.106Z,64.70
2023-04-26T21:04:28.937Z,65.40
2023-04-26T21:06:55.795Z,65.50
2023-04-26T21:09:22.435Z,65.60
2023-04-26T21:11:49.006Z,65.30
2023-04-26T21:14:15.582Z,65.70
2023-04-26T21:16:42.312Z,65.90
2023-04-26T21:19:09.682Z,65.70
2023-04-26T21:21:36.550Z,66.40
2023-04-26T21:24:03.954Z,66.50
2023-04-26T21:26:30.614Z,66.50
2023-04-26T21:28:57.224Z,66.60
2023-04-26T21:31:23.913Z,66.50
2023-04-26T21:33:50.782Z,66.60
2023-04-26T21:36:17.520Z,67.00
2023-04-26T21:38:44.212Z,67.20
2023-04-26T21:41:10.809Z,67.40
2023-04-26T21:43:37.384Z,67.40
2023-04-26T21:46:04.074Z,67.80
2023-04-26T21:48:30.753Z,67.50
2023-04-26T21:50:57.472Z,67.40
2023-04-26T21:53:24.078Z,67.50
2023-04-26T21:55:52.596Z,67.60
2023-04-26T21:58:20.476Z,67.80
2023-04-26T22:00:47.141Z,67.60
2023-04-26T22:03:14.378Z,67.70
2023-04-26T22:05:41.113Z,68.00
2023-04-26T22:08:07.796Z,67.80
2023-04-26T22:10:34.642Z,68.00
2023-04-26T22:13:01.423Z,68.10
2023-04-26T22:15:28.370Z,68.20
2023-04-26T22:17:55.038Z,68.10
2023-04-26T22:20:21.712Z,68.10
2023-04-26T22:22:48.516Z,68.20
2023-04-26T22:25:15.162Z,68.00
2023-04-26T22:27:41.774Z,68.40
2023-04-26T22:30:22.895Z,68.10
2023-04-26T22:32:52.771Z,68.10
2023-04-26T22:35:20.396Z,68.10
2023-04-26T22:37:47.371Z,68.30
2023-04-26T22:40:15.331Z,68.30
2023-04-26T22:42:42.755Z,68.30
2023-04-26T22:45:10.651Z,68.20
2023-04-26T22:47:37.595Z,68.20
2023-04-26T22:50:05.221Z,68.20
2023-04-26T22:52:32.407Z,68.10
2023-04-26T22:55:02.394Z,68.10
2023-04-26T22:57:30.010Z,68.20
2023-04-26T22:59:56.869Z,68.30
2023-04-26T23:02:23.761Z,68.30
2023-04-26T23:04:50.810Z,68.20
2023-04-26T23:07:17.398Z,68.20
2023-04-26T23:09:44.077Z,68.00
2023-04-26T23:12:10.812Z,68.30
2023-04-26T23:14:37.580Z,68.30
2023-04-26T23:17:04.277Z,68.00
2023-04-26T23:19:31.401Z,68.10
2023-04-26T23:21:58.020Z,68.00
2023-04-26T23:24:24.630Z,67.20
2023-04-26T23:26:51.256Z,68.10
2023-04-26T23:29:17.887Z,67.80
2023-04-26T23:31:44.579Z,68.30
2023-04-26T23:34:11.302Z,68.60
2023-04-26T23:36:37.963Z,68.10
2023-04-26T23:39:04.546Z,68.30
2023-04-26T23:41:31.089Z,68.30
2023-04-26T23:43:57.722Z,68.50
2023-04-26T23:46:24.473Z,68.40
2023-04-26T23:48:51.191Z,68.40
2023-04-26T23:51:17.771Z,68.50
2023-04-26T23:53:44.910Z,68.40
2023-04-26T23:56:11.690Z,68.00
2023-04-26T23:58:38.357Z,67.90
